Terminal Aerodrome Forecast
Issued by NWS Central Illinois

Home | Current Version | Previous Version | Text Only | Print | Product List | Glossary On
Versions: 1 2 3 4 5 6 7 8 9 10 11 12 13 14 15 16 17 18 19 20
000
FTUS43 KILX 010900 AAA
TAFPIA
TAF AMD
KPIA 010922Z 0109/0206 20010KT P6SM SCT035
      TEMPO 0110/0112 36007KT BKN030
     FM011600 22012G20KT P6SM VCTS SCT035CB BKN250
     FM011900 23013G21KT P6SM -SHRA VCTS BKN035CB
     FM020000 24005KT 5SM -SHRA BR VCTS BKN035CB=

USA.gov is the U.S. government's official web portal to all federal, state and local government web resources and services.